Terminal Aerodrome Forecast
Issued by NWS Jackson, MS

Home | Current Version | Previous Version | Text Only | Print | Product List | Glossary On
Versions: 1 2 3 4 5 6 7 8 9 10 11 12 13 14
076
FTUS44 KJAN 270143 AAA
TAFHBG
TAF AMD
KHBG 270143Z 2702/2724 VRB04KT P6SM VCTS SCT040CB BKN080
     FM270330 33004KT P6SM SCT040
     FM270900 34003KT 4SM BR SCT007 BKN015
     FM271600 35005KT P6SM SCT035 SCT050=

USA.gov is the U.S. government's official web portal to all federal, state and local government web resources and services.